Time,TemperatureF,DewpointF,PressureIn,WindDirection,WindDirectionDegrees,WindSpeedMPH,WindSpeedGustMPH,Humidity,HourlyPrecipIn,Conditions,Clouds,dailyrainin,SoftwareType,DateUTC
2013-05-28 00:00:00,75.0,67.7,30.24,SSE,158,3.8,3.8,78,0.00,,SCT025,0.00,VWS V14.00,2013-05-28 04:00:00,
2013-05-28 00:01:00,75.9,62.0,30.27,ENE,68,3.8,3.8,62,0.00,,SCT025,0.00,VWS V14.00,2013-05-28 04:01:00,
2013-05-28 00:06:00,75.9,62.0,30.27,East,90,3.4,3.4,62,0.00,,SCT025,0.00,VWS V14.00,2013-05-28 04:06:00,
2013-05-28 00:11:00,75.7,61.3,30.27,East,90,3.1,3.1,61,0.00,,SCT025,0.00,VWS V14.00,2013-05-28 04:11:00,
2013-05-28 00:16:00,75.7,61.3,30.30,East,90,7.4,7.4,61,0.00,,SCT025,0.00,VWS V14.00,2013-05-28 04:16:00,
2013-05-28 00:21:00,75.9,62.0,30.30,ESE,112,4.5,4.5,62,0.00,,SCT025,0.00,VWS V14.00,2013-05-28 04:21:00,
2013-05-28 00:26:00,75.9,62.4,30.30,ESE,112,2.5,2.5,63,0.00,,SCT025,0.00,VWS V14.00,2013-05-28 04:26:00,
2013-05-28 00:31:00,75.9,61.5,30.30,SE,135,6.5,6.5,61,0.00,,SCT025,0.00,VWS V14.00,2013-05-28 04:31:00,
2013-05-28 00:36:00,75.9,61.0,30.27,East,90,3.1,3.1,60,0.00,,SCT025,0.00,VWS V14.00,2013-05-28 04:36:00,
2013-05-28 00:41:00,75.7,61.3,30.27,ESE,112,2.5,2.5,61,0.00,,SCT025,0.00,VWS V14.00,2013-05-28 04:41:00,
2013-05-28 00:46:00,75.7,61.3,30.27,ENE,68,5.6,5.6,61,0.00,,SCT025,0.00,VWS V14.00,2013-05-28 04:46:00,
2013-05-28 00:51:00,75.6,62.1,30.30,ESE,112,3.4,3.4,63,0.00,,SCT025,0.00,VWS V14.00,2013-05-28 04:51:00,
2013-05-28 00:56:00,75.7,61.8,30.30,ENE,68,3.1,3.1,62,0.00,,SCT025,0.00,VWS V14.00,2013-05-28 04:56:00,
2013-05-28 01:01:00,75.6,61.6,30.27,NE,45,2.7,2.7,62,0.00,,SCT025,0.00,VWS V14.00,2013-05-28 05:01:00,
2013-05-28 01:05:00,75.7,61.8,30.27,East,90,4.3,4.3,62,0.00,,SCT025,0.00,VWS V14.00,2013-05-28 05:05:00,
2013-05-28 01:10:00,75.7,62.3,30.27,ESE,112,2.9,2.9,63,0.00,,SCT025,0.00,VWS V14.00,2013-05-28 05:10:00,
2013-05-28 01:15:00,75.7,62.3,30.27,ENE,68,4.0,4.0,63,30.84,,SCT025,30.84,VWS V14.00,2013-05-28 05:15:00,
2013-05-28 01:20:00,75.7,62.3,30.27,ESE,112,3.8,3.8,63,30.84,,SCT025,30.84,VWS V14.00,2013-05-28 05:20:00,
2013-05-28 01:25:00,75.7,62.7,30.27,East,90,3.1,3.1,64,0.00,,SCT025,0.00,VWS V14.00,2013-05-28 05:25:00,
2013-05-28 01:30:00,75.7,62.7,30.27,ESE,112,2.5,2.5,64,0.00,,SCT025,0.00,VWS V14.00,2013-05-28 05:30:00,
2013-05-28 01:35:00,75.6,63.0,30.27,ENE,68,4.9,4.9,65,0.00,,SCT025,0.00,VWS V14.00,2013-05-28 05:35:00,
2013-05-28 01:40:00,75.7,62.7,30.27,ESE,112,3.8,3.8,64,0.00,,SCT025,0.00,VWS V14.00,2013-05-28 05:40:00,
2013-05-28 01:45:00,75.7,63.2,30.24,ESE,112,2.7,2.7,65,0.00,,SCT025,0.00,VWS V14.00,2013-05-28 05:45:00,
2013-05-28 01:50:00,75.7,63.2,30.24,ESE,112,5.8,5.8,65,0.00,,SCT025,0.00,VWS V14.00,2013-05-28 05:50:00,
2013-05-28 01:55:00,75.7,63.2,30.24,ENE,68,4.3,4.3,65,0.00,,SCT025,0.00,VWS V14.00,2013-05-28 05:55:00,
2013-05-28 02:00:00,75.7,62.7,30.27,ESE,112,4.0,4.0,64,0.00,,SCT025,0.00,VWS V14.00,2013-05-28 06:00:00,
2013-05-28 02:05:00,75.6,62.5,30.27,East,90,2.5,2.5,64,0.00,,SCT025,0.00,VWS V14.00,2013-05-28 06:05:00,
2013-05-28 02:10:00,75.6,62.5,30.27,East,90,3.8,3.8,64,0.00,,SCT025,0.00,VWS V14.00,2013-05-28 06:10:00,
2013-05-28 02:15:00,75.4,62.4,30.24,ESE,112,4.3,4.3,64,0.00,,SCT025,0.00,VWS V14.00,2013-05-28 06:15:00,
2013-05-28 02:20:00,75.2,62.6,30.24,ENE,68,3.1,3.1,65,0.00,,SCT025,0.00,VWS V14.00,2013-05-28 06:20:00,
2013-05-28 02:25:00,75.2,62.6,30.24,ESE,112,3.1,3.1,65,0.00,,SCT025,0.00,VWS V14.00,2013-05-28 06:25:00,
2013-05-28 02:30:00,75.2,62.6,30.24,SE,135,4.7,4.7,65,0.00,,SCT025,0.00,VWS V14.00,2013-05-28 06:30:00,
2013-05-28 02:35:00,75.2,62.6,30.24,ENE,68,5.4,5.4,65,0.00,,SCT025,0.00,VWS V14.00,2013-05-28 06:35:00,
2013-05-28 02:40:00,75.2,62.6,30.24,East,90,4.7,4.7,65,0.00,,SCT025,0.00,VWS V14.00,2013-05-28 06:40:00,
2013-05-28 02:45:00,75.2,62.2,30.24,ESE,112,4.0,4.0,64,0.00,,SCT025,0.00,VWS V14.00,2013-05-28 06:45:00,
2013-05-28 02:50:00,75.2,62.2,30.24,East,90,6.3,6.3,64,0.00,,SCT025,0.00,VWS V14.00,2013-05-28 06:50:00,
2013-05-28 02:55:00,75.4,62.4,30.24,East,90,3.4,3.4,64,0.00,,SCT025,0.00,VWS V14.00,2013-05-28 06:55:00,
2013-05-28 03:00:00,75.4,61.9,30.24,East,90,3.1,3.1,63,0.00,,SCT025,0.00,VWS V14.00,2013-05-28 07:00:00,
2013-05-28 03:05:00,75.2,62.2,30.24,ESE,112,3.1,3.1,64,0.00,,SCT025,0.00,VWS V14.00,2013-05-28 07:05:00,
2013-05-28 03:10:00,75.2,62.2,30.24,SE,135,4.0,4.0,64,0.00,,SCT025,0.00,VWS V14.00,2013-05-28 07:10:00,
2013-05-28 03:15:00,75.2,61.8,30.24,East,90,5.6,5.6,63,0.00,,SCT025,0.00,VWS V14.00,2013-05-28 07:15:00,
2013-05-28 03:20:00,75.2,62.2,30.24,ENE,68,3.6,3.6,64,0.00,,SCT025,0.00,VWS V14.00,2013-05-28 07:20:00,
2013-05-28 03:25:00,75.2,62.6,30.24,ESE,112,2.7,2.7,65,0.00,,SCT025,0.00,VWS V14.00,2013-05-28 07:25:00,
2013-05-28 03:30:00,75.2,62.6,30.24,ESE,112,5.8,5.8,65,0.00,,SCT025,0.00,VWS V14.00,2013-05-28 07:30:00,
2013-05-28 03:35:00,75.2,62.6,30.24,ESE,112,3.6,3.6,65,0.00,,SCT025,0.00,VWS V14.00,2013-05-28 07:35:00,
2013-05-28 03:40:00,75.2,62.6,30.24,ESE,112,3.8,3.8,65,0.00,,SCT025,0.00,VWS V14.00,2013-05-28 07:40:00,
2013-05-28 03:45:00,75.2,62.6,30.24,East,90,4.5,4.5,65,0.00,,SCT025,0.00,VWS V14.00,2013-05-28 07:45:00,
2013-05-28 03:50:00,75.2,62.2,30.24,ESE,112,4.9,4.9,64,0.00,,SCT025,0.00,VWS V14.00,2013-05-28 07:50:00,
2013-05-28 03:55:00,75.2,62.2,30.24,ENE,68,3.4,3.4,64,0.00,,SCT025,0.00,VWS V14.00,2013-05-28 07:55:00,
2013-05-28 04:00:00,75.2,62.2,30.24,East,90,4.3,4.3,64,0.00,,SCT025,0.00,VWS V14.00,2013-05-28 08:00:00,
2013-05-28 04:05:00,75.2,62.6,30.24,East,90,5.4,5.4,65,0.00,,SCT025,0.00,VWS V14.00,2013-05-28 08:05:00,
2013-05-28 04:10:00,75.2,63.1,30.24,ESE,112,3.1,3.1,66,0.00,,SCT025,0.00,VWS V14.00,2013-05-28 08:10:00,
2013-05-28 04:15:00,75.2,62.6,30.24,ENE,68,4.0,4.0,65,0.00,,SCT025,0.00,VWS V14.00,2013-05-28 08:15:00,
2013-05-28 04:20:00,75.2,62.6,30.24,East,90,6.3,6.3,65,0.00,,SCT025,0.00,VWS V14.00,2013-05-28 08:20:00,
2013-05-28 04:25:00,75.2,62.6,30.24,SE,135,4.9,4.9,65,0.00,,SCT025,0.00,VWS V14.00,2013-05-28 08:25:00,
2013-05-28 04:30:00,75.4,62.8,30.24,NE,45,5.4,5.4,65,0.00,,SCT025,0.00,VWS V14.00,2013-05-28 08:30:00,
2013-05-28 04:35:00,75.4,62.8,30.21,ENE,68,6.0,6.0,65,0.00,,SCT025,0.00,VWS V14.00,2013-05-28 08:35:00,
2013-05-28 04:40:00,75.4,62.8,30.21,ESE,112,3.8,3.8,65,0.00,,SCT025,0.00,VWS V14.00,2013-05-28 08:40:00,
2013-05-28 04:45:00,75.2,62.6,30.24,ESE,112,5.6,5.6,65,0.00,,SCT025,0.00,VWS V14.00,2013-05-28 08:45:00,
2013-05-28 04:50:00,75.2,62.6,30.24,ESE,112,7.6,7.6,65,0.00,,SCT025,0.00,VWS V14.00,2013-05-28 08:50:00,
2013-05-28 04:55:00,75.2,62.6,30.24,ENE,68,7.6,7.6,65,0.00,,SCT025,0.00,VWS V14.00,2013-05-28 08:55:00,
2013-05-28 05:00:00,75.4,62.8,30.21,ESE,112,4.9,4.9,65,0.00,,SCT025,0.00,VWS V14.00,2013-05-28 09:00:00,
2013-05-28 05:05:00,75.4,62.8,30.21,ENE,68,5.8,5.8,65,0.00,,SCT025,0.00,VWS V14.00,2013-05-28 09:05:00,
2013-05-28 05:10:00,75.4,62.4,30.21,ENE,68,4.3,4.3,64,0.00,,SCT025,0.00,VWS V14.00,2013-05-28 09:10:00,
2013-05-28 05:15:00,75.4,62.4,30.24,ENE,68,5.6,5.6,64,0.00,,SCT025,0.00,VWS V14.00,2013-05-28 09:15:00,
2013-05-28 05:20:00,75.4,62.4,30.24,East,90,3.8,3.8,64,0.00,,SCT025,0.00,VWS V14.00,2013-05-28 09:20:00,
2013-05-28 05:25:00,75.4,62.4,30.24,ENE,68,7.2,7.2,64,0.00,,SCT025,0.00,VWS V14.00,2013-05-28 09:25:00,
2013-05-28 05:30:00,75.4,62.4,30.21,ENE,68,6.5,6.5,64,0.00,,SCT025,0.00,VWS V14.00,2013-05-28 09:30:00,
2013-05-28 05:35:00,75.4,62.8,30.21,SE,135,2.9,2.9,65,0.00,,SCT025,0.00,VWS V14.00,2013-05-28 09:35:00,
2013-05-28 05:40:00,75.4,62.8,30.21,ESE,112,4.0,4.0,65,0.00,,SCT025,0.00,VWS V14.00,2013-05-28 09:40:00,
2013-05-28 05:45:00,75.2,62.2,30.21,East,90,5.6,5.6,64,0.00,,SCT025,0.00,VWS V14.00,2013-05-28 09:45:00,
2013-05-28 05:50:00,75.2,62.2,30.21,ENE,68,5.8,5.8,64,0.00,,SCT025,0.00,VWS V14.00,2013-05-28 09:50:00,
2013-05-28 05:55:00,75.2,62.2,30.21,South,180,4.9,4.9,64,0.00,,SCT025,0.00,VWS V14.00,2013-05-28 09:55:00,
2013-05-28 06:00:00,75.2,61.8,30.21,ENE,68,3.6,3.6,63,0.00,,SCT025,0.00,VWS V14.00,2013-05-28 10:00:00,
2013-05-28 06:05:00,75.4,61.5,30.21,ENE,68,7.4,7.4,62,0.00,,SCT025,0.00,VWS V14.00,2013-05-28 10:05:00,
2013-05-28 06:10:00,75.4,61.5,30.21,East,90,4.3,4.3,62,0.00,,SCT025,0.00,VWS V14.00,2013-05-28 10:10:00,
2013-05-28 06:15:00,75.4,61.5,30.24,East,90,3.6,3.6,62,0.00,,SCT025,0.00,VWS V14.00,2013-05-28 10:15:00,
2013-05-28 06:20:00,75.2,61.8,30.24,ENE,68,6.5,6.5,63,0.00,,SCT025,0.00,VWS V14.00,2013-05-28 10:20:00,
2013-05-28 06:25:00,75.2,61.8,30.24,ESE,112,3.4,3.4,63,0.00,,SCT025,0.00,VWS V14.00,2013-05-28 10:25:00,
2013-05-28 06:30:00,75.2,61.8,30.24,ENE,68,4.9,4.9,63,0.00,,SCT025,0.00,VWS V14.00,2013-05-28 10:30:00,
2013-05-28 06:35:00,75.2,61.8,30.24,ESE,112,4.5,4.5,63,0.00,,SCT025,0.00,VWS V14.00,2013-05-28 10:35:00,
2013-05-28 06:40:00,75.2,61.8,30.24,ENE,68,6.3,6.3,63,0.00,,SCT025,0.00,VWS V14.00,2013-05-28 10:40:00,
2013-05-28 06:45:00,75.2,61.8,30.24,ESE,112,7.8,7.8,63,0.00,,SCT025,0.00,VWS V14.00,2013-05-28 10:45:00,
2013-05-28 06:50:00,75.4,61.9,30.24,ENE,68,2.9,2.9,63,0.00,,SCT025,0.00,VWS V14.00,2013-05-28 10:50:00,
2013-05-28 06:55:00,75.4,61.9,30.24,SE,135,3.6,3.6,63,0.00,,SCT025,0.00,VWS V14.00,2013-05-28 10:55:00,
2013-05-28 07:00:00,75.6,61.6,30.24,ENE,68,8.5,8.5,62,0.00,,SCT025,0.00,VWS V14.00,2013-05-28 11:00:00,
2013-05-28 07:05:00,75.9,62.0,30.24,ESE,112,3.8,3.8,62,0.00,,SCT025,0.00,VWS V14.00,2013-05-28 11:05:00,
2013-05-28 07:10:00,76.1,62.2,30.24,East,90,4.0,4.0,62,0.00,,SCT025,0.00,VWS V14.00,2013-05-28 11:10:00,
2013-05-28 07:15:00,76.5,62.5,30.24,ENE,68,3.1,3.1,62,0.00,,SCT025,0.00,VWS V14.00,2013-05-28 11:15:00,
2013-05-28 07:20:00,76.6,62.2,30.24,ESE,112,2.9,2.9,61,0.00,,SCT025,0.00,VWS V14.00,2013-05-28 11:20:00,
2013-05-28 07:25:00,76.8,62.8,30.24,ENE,68,4.3,4.3,62,0.00,,SCT025,0.00,VWS V14.00,2013-05-28 11:25:00,
2013-05-28 07:30:00,77.0,62.5,30.24,ENE,68,3.6,3.6,61,0.00,,SCT025,0.00,VWS V14.00,2013-05-28 11:30:00,
2013-05-28 07:35:00,77.4,62.4,91.07,ENE,68,3.1,3.1,60,0.00,,SCT025,0.00,VWS V14.00,2013-05-28 11:35:00,
2013-05-28 07:40:00,77.4,62.4,91.07,East,90,5.8,5.8,60,0.00,,SCT025,0.00,VWS V14.00,2013-05-28 11:40:00,
2013-05-28 07:45:00,77.7,62.7,30.21,ESE,112,3.1,3.1,60,0.00,,SCT025,0.00,VWS V14.00,2013-05-28 11:45:00,
2013-05-28 07:50:00,77.9,62.9,30.21,ESE,112,4.7,4.7,60,0.00,,SCT025,0.00,VWS V14.00,2013-05-28 11:50:00,
2013-05-28 07:55:00,78.1,63.1,30.21,ENE,68,5.8,5.8,60,0.00,,SCT025,0.00,VWS V14.00,2013-05-28 11:55:00,
2013-05-28 08:00:00,78.3,63.7,30.24,East,90,4.0,4.0,61,0.00,,SCT025,0.00,VWS V14.00,2013-05-28 12:00:00,
2013-05-28 08:05:00,78.6,63.1,30.24,SE,135,5.8,5.8,59,0.00,,SCT025,0.00,VWS V14.00,2013-05-28 12:05:00,
2013-05-28 08:10:00,78.8,63.3,30.24,SSE,158,3.8,3.8,59,0.00,,SCT025,0.00,VWS V14.00,2013-05-28 12:10:00,
2013-05-28 08:15:00,78.8,63.3,30.24,East,90,4.9,4.9,59,0.00,,SCT025,0.00,VWS V14.00,2013-05-28 12:15:00,
2013-05-28 08:20:00,78.6,63.1,30.24,NE,45,7.2,7.2,59,0.00,,SCT025,0.00,VWS V14.00,2013-05-28 12:20:00,
2013-05-28 08:25:00,78.6,63.1,30.24,SE,135,6.5,6.5,59,0.00,,SCT025,0.00,VWS V14.00,2013-05-28 12:25:00,
2013-05-28 08:30:00,79.3,63.8,30.24,SE,135,6.5,6.5,59,0.00,,SCT025,0.00,VWS V14.00,2013-05-28 12:30:00,
2013-05-28 08:34:00,79.7,64.1,30.24,East,90,4.5,4.5,59,0.00,,SCT025,0.00,VWS V14.00,2013-05-28 12:34:00,
2013-05-28 08:39:00,79.7,63.6,30.24,East,90,4.9,4.9,58,0.00,,SCT025,0.00,VWS V14.00,2013-05-28 12:39:00,
2013-05-28 08:44:00,79.9,63.3,30.24,East,90,5.8,5.8,57,0.00,,SCT025,0.00,VWS V14.00,2013-05-28 12:44:00,
2013-05-28 08:49:00,79.3,63.3,30.24,ESE,112,3.6,3.6,58,0.00,,SCT025,0.00,VWS V14.00,2013-05-28 12:49:00,
2013-05-28 08:54:00,79.2,63.1,30.24,ESE,112,5.4,5.4,58,0.00,,SCT025,0.00,VWS V14.00,2013-05-28 12:54:00,
2013-05-28 08:59:00,79.2,63.1,30.24,ENE,68,5.4,5.4,58,0.00,,SCT025,0.00,VWS V14.00,2013-05-28 12:59:00,
2013-05-28 09:04:00,79.0,63.4,30.24,East,90,6.5,6.5,59,0.00,,SCT025,0.00,VWS V14.00,2013-05-28 13:04:00,
2013-05-28 09:09:00,79.2,64.6,30.24,SSE,158,4.3,4.3,61,0.00,,SCT025,0.00,VWS V14.00,2013-05-28 13:09:00,
2013-05-28 09:14:00,79.0,63.9,30.27,East,90,6.5,6.5,60,0.00,,SCT025,0.00,VWS V14.00,2013-05-28 13:14:00,
2013-05-28 09:19:00,78.8,63.8,30.27,ENE,68,6.5,6.5,60,0.00,,SCT025,0.00,VWS V14.00,2013-05-28 13:19:00,
2013-05-28 09:24:00,79.0,63.9,30.27,ENE,68,5.8,5.8,60,0.00,,SCT025,0.00,VWS V14.00,2013-05-28 13:24:00,
2013-05-28 09:29:00,79.0,63.9,30.24,East,90,6.3,6.3,60,0.00,,SCT025,0.00,VWS V14.00,2013-05-28 13:29:00,
2013-05-28 09:34:00,79.0,63.9,30.24,South,180,6.5,6.5,60,0.00,,SCT025,0.00,VWS V14.00,2013-05-28 13:34:00,
2013-05-28 09:39:00,79.5,64.9,30.24,ESE,112,8.7,8.7,61,0.00,,SCT025,0.00,VWS V14.00,2013-05-28 13:39:00,
2013-05-28 09:44:00,79.3,64.7,30.27,ENE,68,3.8,3.8,61,0.00,,SCT025,0.00,VWS V14.00,2013-05-28 13:44:00,
2013-05-28 09:49:00,79.7,64.1,30.27,ESE,112,6.3,6.3,59,0.00,,SCT025,0.00,VWS V14.00,2013-05-28 13:49:00,
2013-05-28 09:54:00,79.7,64.1,30.27,ENE,68,8.1,8.1,59,0.00,,SCT025,0.00,VWS V14.00,2013-05-28 13:54:00,
2013-05-28 09:59:00,79.7,64.1,30.27,East,90,7.8,7.8,59,0.00,,SCT025,0.00,VWS V14.00,2013-05-28 13:59:00,
2013-05-28 10:04:00,79.7,63.6,30.27,ESE,112,6.0,6.0,58,0.00,,SCT025,0.00,VWS V14.00,2013-05-28 14:04:00,
2013-05-28 10:09:00,79.7,63.6,30.27,ENE,68,4.3,4.3,58,0.00,,SCT025,0.00,VWS V14.00,2013-05-28 14:09:00,
2013-05-28 10:14:00,80.4,64.8,30.27,ESE,112,9.0,9.0,59,0.00,,SCT025,0.00,VWS V14.00,2013-05-28 14:14:00,
2013-05-28 10:19:00,80.1,64.0,30.27,East,90,4.7,4.7,58,0.00,,SCT025,0.00,VWS V14.00,2013-05-28 14:19:00,
2013-05-28 10:24:00,80.1,64.0,30.27,SE,135,10.3,10.3,58,0.00,,SCT025,0.00,VWS V14.00,2013-05-28 14:24:00,
2013-05-28 10:29:00,79.9,63.8,30.27,ENE,68,5.8,5.8,58,0.00,,SCT025,0.00,VWS V14.00,2013-05-28 14:29:00,
2013-05-28 10:34:00,80.4,64.8,30.27,ESE,112,7.6,7.6,59,0.00,,SCT025,0.00,VWS V14.00,2013-05-28 14:34:00,
2013-05-28 10:39:00,81.0,64.8,30.27,ENE,68,6.0,6.0,58,0.00,,SCT025,0.00,VWS V14.00,2013-05-28 14:39:00,
2013-05-28 10:44:00,80.4,63.8,30.27,ENE,68,7.4,7.4,57,0.00,,SCT025,0.00,VWS V14.00,2013-05-28 14:44:00,
2013-05-28 10:49:00,80.6,65.4,30.27,SSE,158,6.0,6.0,60,0.00,,SCT025,0.00,VWS V14.00,2013-05-28 14:49:00,
2013-05-28 10:54:00,81.1,65.0,30.27,East,90,6.0,6.0,58,0.00,,SCT025,0.00,VWS V14.00,2013-05-28 14:54:00,
2013-05-28 10:59:00,80.4,64.3,30.27,SSE,158,6.5,6.5,58,0.00,,SCT025,0.00,VWS V14.00,2013-05-28 14:59:00,
2013-05-28 11:04:00,80.8,65.1,30.27,East,90,7.8,7.8,59,0.00,,SCT025,0.00,VWS V14.00,2013-05-28 15:04:00,
2013-05-28 11:09:00,80.8,65.1,30.27,SSE,158,6.0,6.0,59,0.00,,SCT025,0.00,VWS V14.00,2013-05-28 15:09:00,
2013-05-28 11:14:00,81.5,65.8,30.27,ESE,112,3.4,3.4,59,0.00,,SCT025,0.00,VWS V14.00,2013-05-28 15:14:00,
2013-05-28 11:19:00,81.7,65.5,30.27,NE,45,2.9,2.9,58,0.00,,SCT025,0.00,VWS V14.00,2013-05-28 15:19:00,
2013-05-28 11:24:00,82.0,66.3,30.27,ESE,112,5.4,5.4,59,0.00,,SCT025,0.00,VWS V14.00,2013-05-28 15:24:00,
2013-05-28 11:29:00,81.7,64.0,30.27,East,90,6.3,6.3,55,0.00,,SCT025,0.00,VWS V14.00,2013-05-28 15:29:00,
2013-05-28 11:34:00,82.0,65.8,30.27,ENE,68,5.6,5.6,58,0.00,,SCT025,0.00,VWS V14.00,2013-05-28 15:34:00,
2013-05-28 11:39:00,82.2,66.0,30.27,East,90,6.5,6.5,58,0.00,,SCT025,0.00,VWS V14.00,2013-05-28 15:39:00,
2013-05-28 11:44:00,82.0,65.3,30.27,East,90,4.0,4.0,57,0.00,,SCT025,0.00,VWS V14.00,2013-05-28 15:44:00,
2013-05-28 11:49:00,82.2,65.0,30.27,East,90,8.5,8.5,56,0.00,,SCT025,0.00,VWS V14.00,2013-05-28 15:49:00,
2013-05-28 11:54:00,81.7,64.0,30.27,ESE,112,5.6,5.6,55,0.00,,SCT025,0.00,VWS V14.00,2013-05-28 15:54:00,
2013-05-28 11:59:00,78.6,67.2,30.27,East,90,7.2,7.2,68,0.00,,SCT025,0.00,VWS V14.00,2013-05-28 15:59:00,
2013-05-28 12:04:00,78.1,69.1,30.27,East,90,3.4,3.4,74,0.00,,SCT025,0.00,VWS V14.00,2013-05-28 16:04:00,
2013-05-28 12:09:00,78.8,72.5,30.27,ENE,68,6.3,6.3,81,0.00,,SCT025,0.00,VWS V14.00,2013-05-28 16:09:00,
2013-05-28 12:14:00,78.1,69.9,30.27,ENE,68,4.3,4.3,76,0.00,,SCT025,0.00,VWS V14.00,2013-05-28 16:14:00,
2013-05-28 12:19:00,78.1,69.9,30.27,ENE,68,5.6,5.6,76,0.00,,SCT025,0.00,VWS V14.00,2013-05-28 16:19:00,
2013-05-28 12:24:00,78.4,70.2,30.27,East,90,13.2,13.2,76,0.00,,SCT025,0.00,VWS V14.00,2013-05-28 16:24:00,
2013-05-28 12:29:00,78.6,69.7,30.27,ENE,68,10.1,10.1,74,0.00,,SCT025,0.00,VWS V14.00,2013-05-28 16:29:00,
2013-05-28 12:34:00,78.6,69.7,30.24,East,90,6.0,6.0,74,0.00,,SCT025,0.00,VWS V14.00,2013-05-28 16:34:00,
2013-05-28 12:39:00,78.6,69.7,30.24,ENE,68,6.9,6.9,74,0.00,,SCT025,0.00,VWS V14.00,2013-05-28 16:39:00,
2013-05-28 12:44:00,80.2,70.0,30.24,ENE,68,5.8,5.8,71,0.00,,SCT025,0.00,VWS V14.00,2013-05-28 16:44:00,
2013-05-28 12:49:00,81.1,70.8,30.24,East,90,6.3,6.3,71,0.00,,SCT025,0.00,VWS V14.00,2013-05-28 16:49:00,
2013-05-28 12:54:00,81.1,69.2,30.24,ESE,112,6.0,6.0,67,0.00,,SCT025,0.00,VWS V14.00,2013-05-28 16:54:00,
2013-05-28 12:59:00,81.1,69.2,30.24,East,90,4.9,4.9,67,0.00,,SCT025,0.00,VWS V14.00,2013-05-28 16:59:00,
2013-05-28 13:04:00,80.8,67.9,30.24,ESE,112,7.6,7.6,65,0.00,,SCT025,0.00,VWS V14.00,2013-05-28 17:04:00,
2013-05-28 13:09:00,81.3,67.5,30.24,ENE,68,6.0,6.0,63,0.00,,SCT025,0.00,VWS V14.00,2013-05-28 17:09:00,
2013-05-28 13:14:00,81.3,67.5,30.24,ENE,68,9.8,9.8,63,0.00,,SCT025,0.00,VWS V14.00,2013-05-28 17:14:00,
2013-05-28 13:19:00,81.5,67.2,30.24,SE,135,8.1,8.1,62,0.00,,SCT025,0.00,VWS V14.00,2013-05-28 17:19:00,
2013-05-28 13:24:00,81.5,67.2,30.24,SW,225,6.0,6.0,62,0.00,,SCT025,0.00,VWS V14.00,2013-05-28 17:24:00,
2013-05-28 13:29:00,80.4,66.2,30.24,SSE,158,8.1,8.1,62,0.00,,SCT025,0.00,VWS V14.00,2013-05-28 17:29:00,
2013-05-28 13:34:00,80.4,66.2,30.24,East,90,4.9,4.9,62,0.00,,SCT025,0.00,VWS V14.00,2013-05-28 17:34:00,
2013-05-28 13:39:00,77.9,72.3,30.24,ESE,112,4.0,4.0,83,0.00,,SCT025,0.00,VWS V14.00,2013-05-28 17:39:00,
2013-05-28 13:44:00,78.4,75.3,30.24,ESE,112,5.6,5.6,90,0.00,,SCT025,0.00,VWS V14.00,2013-05-28 17:44:00,
2013-05-28 13:49:00,78.4,75.3,30.24,ENE,68,2.5,2.5,90,0.00,,SCT025,0.00,VWS V14.00,2013-05-28 17:49:00,
2013-05-28 13:54:00,79.2,76.3,30.24,ESE,112,3.8,3.8,91,0.00,,SCT025,0.00,VWS V14.00,2013-05-28 17:54:00,
2013-05-28 13:59:00,79.2,76.3,30.24,East,90,2.7,2.7,91,0.00,,SCT025,0.00,VWS V14.00,2013-05-28 17:59:00,
2013-05-28 14:04:00,80.1,75.2,30.24,East,90,6.5,6.5,85,0.00,,SCT025,0.00,VWS V14.00,2013-05-28 18:04:00,
2013-05-28 14:09:00,79.7,71.9,30.24,ENE,68,4.3,4.3,77,0.00,,SCT025,0.00,VWS V14.00,2013-05-28 18:09:00,
2013-05-28 14:14:00,79.5,70.9,30.24,ESE,112,7.6,7.6,75,0.00,,SCT025,0.00,VWS V14.00,2013-05-28 18:14:00,
2013-05-28 14:19:00,79.5,70.9,30.24,ENE,68,7.8,7.8,75,0.00,,SCT025,0.00,VWS V14.00,2013-05-28 18:19:00,
2013-05-28 14:24:00,80.1,70.2,30.24,SSE,158,7.4,7.4,72,0.00,,SCT025,0.00,VWS V14.00,2013-05-28 18:24:00,
2013-05-28 14:29:00,80.4,68.9,30.24,SE,135,6.9,6.9,68,0.00,,SCT025,0.00,VWS V14.00,2013-05-28 18:29:00,
2013-05-28 14:33:00,80.6,69.1,30.24,NE,45,7.8,7.8,68,0.00,,SCT025,0.00,VWS V14.00,2013-05-28 18:33:00,
2013-05-28 14:38:00,81.0,69.0,30.24,East,90,6.5,6.5,67,0.00,,SCT025,0.00,VWS V14.00,2013-05-28 18:38:00,
2013-05-28 14:43:00,81.0,68.5,30.24,NNE,22,5.8,5.8,66,0.00,,SCT025,0.00,VWS V14.00,2013-05-28 18:43:00,
2013-05-28 14:48:00,81.1,68.7,30.24,ENE,68,7.2,7.2,66,0.00,,SCT025,0.00,VWS V14.00,2013-05-28 18:48:00,
2013-05-28 14:53:00,80.6,65.9,30.24,ENE,68,5.4,5.4,61,0.00,,SCT025,0.00,VWS V14.00,2013-05-28 18:53:00,
2013-05-28 14:58:00,80.8,67.5,30.21,NE,45,5.8,5.8,64,0.00,,SCT025,0.00,VWS V14.00,2013-05-28 18:58:00,
2013-05-28 15:03:00,81.1,67.8,30.21,ENE,68,11.2,11.2,64,0.00,,SCT025,0.00,VWS V14.00,2013-05-28 19:03:00,
2013-05-28 15:08:00,81.1,67.8,30.21,East,90,8.5,8.5,64,0.00,,SCT025,0.00,VWS V14.00,2013-05-28 19:08:00,
2013-05-28 15:13:00,80.8,66.6,30.24,ENE,68,4.3,4.3,62,0.00,,SCT025,0.00,VWS V14.00,2013-05-28 19:13:00,
2013-05-28 15:18:00,80.8,66.6,30.24,ESE,112,5.6,5.6,62,0.00,,SCT025,0.00,VWS V14.00,2013-05-28 19:18:00,
2013-05-28 15:23:00,81.1,68.3,30.24,ESE,112,8.1,8.1,65,0.00,,SCT025,0.00,VWS V14.00,2013-05-28 19:23:00,
2013-05-28 15:28:00,81.1,67.4,30.24,NNE,22,7.2,7.2,63,0.00,,SCT025,0.00,VWS V14.00,2013-05-28 19:28:00,
2013-05-28 15:33:00,80.8,67.5,30.24,ENE,68,7.6,7.6,64,0.00,,SCT025,0.00,VWS V14.00,2013-05-28 19:33:00,
2013-05-28 15:38:00,81.0,68.1,30.24,ESE,112,6.3,6.3,65,0.00,,SCT025,0.00,VWS V14.00,2013-05-28 19:38:00,
2013-05-28 15:43:00,81.1,67.8,30.24,ENE,68,10.5,10.5,64,0.00,,SCT025,0.00,VWS V14.00,2013-05-28 19:43:00,
2013-05-28 15:48:00,80.6,66.8,30.24,ESE,112,7.4,7.4,63,0.00,,SCT025,0.00,VWS V14.00,2013-05-28 19:48:00,
2013-05-28 15:53:00,80.2,67.0,30.24,East,90,4.9,4.9,64,0.00,,SCT025,0.00,VWS V14.00,2013-05-28 19:53:00,
2013-05-28 15:58:00,80.4,67.1,30.24,ENE,68,10.3,10.3,64,0.00,,SCT025,0.00,VWS V14.00,2013-05-28 19:58:00,
2013-05-28 16:03:00,80.2,67.0,30.24,East,90,5.8,5.8,64,0.00,,SCT025,0.00,VWS V14.00,2013-05-28 20:03:00,
2013-05-28 16:08:00,80.8,67.0,30.24,ENE,68,9.8,9.8,63,0.00,,SCT025,0.00,VWS V14.00,2013-05-28 20:08:00,
2013-05-28 16:13:00,80.2,66.5,30.24,East,90,10.5,10.5,63,0.00,,SCT025,0.00,VWS V14.00,2013-05-28 20:13:00,
2013-05-28 16:18:00,80.2,66.5,30.24,ESE,112,9.4,9.4,63,0.00,,SCT025,0.00,VWS V14.00,2013-05-28 20:18:00,
2013-05-28 16:23:00,80.2,66.5,30.24,ENE,68,10.1,10.1,63,0.00,,SCT025,0.00,VWS V14.00,2013-05-28 20:23:00,
2013-05-28 16:28:00,80.2,67.4,30.24,ESE,112,8.5,8.5,65,0.00,,SCT025,0.00,VWS V14.00,2013-05-28 20:28:00,
2013-05-28 16:33:00,79.7,66.5,30.24,East,90,5.4,5.4,64,0.00,,SCT025,0.00,VWS V14.00,2013-05-28 20:33:00,
2013-05-28 16:38:00,79.7,66.5,30.24,East,90,6.0,6.0,64,0.00,,SCT025,0.00,VWS V14.00,2013-05-28 20:38:00,
2013-05-28 16:43:00,79.7,66.5,30.24,ENE,68,6.5,6.5,64,0.00,,SCT025,0.00,VWS V14.00,2013-05-28 20:43:00,
2013-05-28 16:48:00,79.9,67.1,30.24,ESE,112,3.6,3.6,65,0.00,,SCT025,0.00,VWS V14.00,2013-05-28 20:48:00,
2013-05-28 16:53:00,79.9,67.1,30.24,East,90,7.6,7.6,65,0.00,,SCT025,0.00,VWS V14.00,2013-05-28 20:53:00,
2013-05-28 16:58:00,79.9,67.1,30.24,East,90,6.5,6.5,65,0.00,,SCT025,0.00,VWS V14.00,2013-05-28 20:58:00,
2013-05-28 17:03:00,79.9,67.1,30.24,ESE,112,5.6,5.6,65,0.00,,SCT025,0.00,VWS V14.00,2013-05-28 21:03:00,
2013-05-28 17:08:00,80.1,67.7,30.24,ENE,68,5.4,5.4,66,0.00,,SCT025,0.00,VWS V14.00,2013-05-28 21:08:00,
2013-05-28 17:13:00,79.7,66.5,30.24,ESE,112,6.5,6.5,64,0.00,,SCT025,0.00,VWS V14.00,2013-05-28 21:13:00,
2013-05-28 17:18:00,79.7,66.5,30.24,East,90,4.9,4.9,64,0.00,,SCT025,0.00,VWS V14.00,2013-05-28 21:18:00,
2013-05-28 17:23:00,79.9,67.1,30.24,ENE,68,6.5,6.5,65,0.00,,SCT025,0.00,VWS V14.00,2013-05-28 21:23:00,
2013-05-28 17:28:00,79.5,66.7,30.24,SE,135,5.4,5.4,65,0.00,,SCT025,0.00,VWS V14.00,2013-05-28 21:28:00,
2013-05-28 17:33:00,79.7,67.3,30.24,NE,45,8.1,8.1,66,0.00,,SCT025,0.00,VWS V14.00,2013-05-28 21:33:00,
2013-05-28 17:38:00,79.7,66.5,30.24,ENE,68,6.5,6.5,64,0.00,,SCT025,0.00,VWS V14.00,2013-05-28 21:38:00,
2013-05-28 17:43:00,79.5,66.3,30.24,ENE,68,7.6,7.6,64,0.00,,SCT025,0.00,VWS V14.00,2013-05-28 21:43:00,
2013-05-28 17:48:00,79.5,66.3,30.24,East,90,5.4,5.4,64,0.00,,SCT025,0.00,VWS V14.00,2013-05-28 21:48:00,
2013-05-28 17:53:00,79.7,66.9,30.24,SE,135,4.3,4.3,65,0.00,,SCT025,0.00,VWS V14.00,2013-05-28 21:53:00,
2013-05-28 17:58:00,79.7,66.9,30.24,East,90,7.8,7.8,65,0.00,,SCT025,0.00,VWS V14.00,2013-05-28 21:58:00,
2013-05-28 18:03:00,79.7,66.9,30.24,ESE,112,7.6,7.6,65,0.00,,SCT025,0.00,VWS V14.00,2013-05-28 22:03:00,
2013-05-28 18:08:00,79.5,66.7,30.24,ESE,112,5.8,5.8,65,0.00,,SCT025,0.00,VWS V14.00,2013-05-28 22:08:00,
2013-05-28 18:13:00,79.3,66.6,30.24,SSE,158,7.6,7.6,65,0.00,,SCT025,0.00,VWS V14.00,2013-05-28 22:13:00,
2013-05-28 18:18:00,79.7,67.8,30.24,SE,135,6.0,6.0,67,0.00,,SCT025,0.00,VWS V14.00,2013-05-28 22:18:00,
2013-05-28 18:23:00,79.2,66.8,30.24,ENE,68,7.2,7.2,66,0.00,,SCT025,0.00,VWS V14.00,2013-05-28 22:23:00,
2013-05-28 18:28:00,79.0,66.7,30.24,ESE,112,8.7,8.7,66,0.00,,SCT025,0.00,VWS V14.00,2013-05-28 22:28:00,
2013-05-28 18:33:00,79.0,66.7,30.24,East,90,6.0,6.0,66,0.00,,SCT025,0.00,VWS V14.00,2013-05-28 22:33:00,
2013-05-28 18:38:00,78.8,66.9,30.24,ENE,68,6.5,6.5,67,0.00,,SCT025,0.00,VWS V14.00,2013-05-28 22:38:00,
2013-05-28 18:43:00,78.8,66.5,30.24,ESE,112,7.6,7.6,66,0.00,,SCT025,0.00,VWS V14.00,2013-05-28 22:43:00,
2013-05-28 18:48:00,78.8,66.5,30.21,East,90,4.3,4.3,66,0.00,,SCT025,0.00,VWS V14.00,2013-05-28 22:48:00,
2013-05-28 18:53:00,78.8,66.9,30.21,East,90,5.8,5.8,67,0.00,,SCT025,0.00,VWS V14.00,2013-05-28 22:53:00,
2013-05-28 18:58:00,78.6,66.8,30.21,ENE,68,6.5,6.5,67,0.00,,SCT025,0.00,VWS V14.00,2013-05-28 22:58:00,
2013-05-28 19:03:00,78.4,67.0,30.21,East,90,10.1,10.1,68,0.00,,SCT025,0.00,VWS V14.00,2013-05-28 23:03:00,
2013-05-28 19:08:00,78.4,67.0,30.21,ESE,112,3.6,3.6,68,0.00,,SCT025,0.00,VWS V14.00,2013-05-28 23:08:00,
2013-05-28 19:13:00,78.4,67.4,30.21,East,90,3.1,3.1,69,0.00,,SCT025,0.00,VWS V14.00,2013-05-28 23:13:00,
2013-05-28 19:18:00,78.4,67.4,30.21,ENE,68,4.0,4.0,69,0.00,,SCT025,0.00,VWS V14.00,2013-05-28 23:18:00,
2013-05-28 19:23:00,78.4,67.8,30.21,East,90,5.8,5.8,70,0.00,,SCT025,0.00,VWS V14.00,2013-05-28 23:23:00,
2013-05-28 19:28:00,78.3,68.1,30.24,ENE,68,1.6,1.6,71,0.00,,SCT025,0.00,VWS V14.00,2013-05-28 23:28:00,
2013-05-28 19:33:00,78.3,67.7,30.24,ENE,68,5.8,5.8,70,0.00,,SCT025,0.00,VWS V14.00,2013-05-28 23:33:00,
2013-05-28 19:38:00,78.3,68.1,30.24,East,90,6.5,6.5,71,0.00,,SCT025,0.00,VWS V14.00,2013-05-28 23:38:00,
2013-05-28 19:43:00,78.1,67.5,30.24,East,90,4.0,4.0,70,0.00,,SCT025,0.00,VWS V14.00,2013-05-28 23:43:00,
2013-05-28 19:48:00,78.1,67.5,30.24,ENE,68,5.6,5.6,70,0.00,,SCT025,0.00,VWS V14.00,2013-05-28 23:48:00,
2013-05-28 19:53:00,78.1,67.5,30.24,ESE,112,6.0,6.0,70,0.00,,SCT025,0.00,VWS V14.00,2013-05-28 23:53:00,
2013-05-28 19:58:00,78.1,67.5,30.24,ESE,112,7.2,7.2,70,0.00,,SCT025,0.00,VWS V14.00,2013-05-28 23:58:00,
2013-05-28 20:03:00,78.1,67.5,30.24,ENE,68,4.3,4.3,70,0.00,,SCT025,0.00,VWS V14.00,2013-05-29 00:03:00,
2013-05-28 20:08:00,78.1,67.9,30.24,ENE,68,4.0,4.0,71,0.00,,SCT025,0.00,VWS V14.00,2013-05-29 00:08:00,
2013-05-28 20:13:00,77.9,67.8,30.24,ESE,112,8.5,8.5,71,0.00,,SCT025,0.00,VWS V14.00,2013-05-29 00:13:00,
2013-05-28 20:18:00,77.9,67.8,30.24,ESE,112,5.6,5.6,71,0.00,,SCT025,0.00,VWS V14.00,2013-05-29 00:18:00,
2013-05-28 20:23:00,77.9,67.8,30.24,ENE,68,4.0,4.0,71,0.00,,SCT025,0.00,VWS V14.00,2013-05-29 00:23:00,
2013-05-28 20:28:00,77.9,68.6,30.24,ESE,112,5.8,5.8,73,0.00,,SCT025,0.00,VWS V14.00,2013-05-29 00:28:00,
2013-05-28 20:33:00,77.9,68.6,30.24,ESE,112,6.0,6.0,73,0.00,,SCT025,0.00,VWS V14.00,2013-05-29 00:33:00,
2013-05-28 20:38:00,77.9,68.6,30.24,North,0,2.9,2.9,73,0.00,,SCT025,0.00,VWS V14.00,2013-05-29 00:38:00,
2013-05-28 20:43:00,77.9,68.2,30.24,East,90,3.4,3.4,72,0.00,,SCT025,0.00,VWS V14.00,2013-05-29 00:43:00,
2013-05-28 20:48:00,77.9,68.2,30.24,ENE,68,6.3,6.3,72,0.00,,SCT025,0.00,VWS V14.00,2013-05-29 00:48:00,
2013-05-28 20:53:00,77.7,68.0,30.24,East,90,10.3,10.3,72,0.00,,SCT025,0.00,VWS V14.00,2013-05-29 00:53:00,
2013-05-28 20:58:00,77.7,68.0,30.24,East,90,10.3,10.3,72,0.00,,SCT025,0.00,VWS V14.00,2013-05-29 00:58:00,
2013-05-28 21:03:00,77.7,68.8,30.24,East,90,4.3,4.3,74,0.00,,SCT025,0.00,VWS V14.00,2013-05-29 01:03:00,
2013-05-28 21:08:00,77.7,69.2,30.24,ENE,68,3.1,3.1,75,0.00,,SCT025,0.00,VWS V14.00,2013-05-29 01:08:00,
2013-05-28 21:13:00,77.7,69.2,30.24,East,90,3.4,3.4,75,0.00,,SCT025,0.00,VWS V14.00,2013-05-29 01:13:00,
2013-05-28 21:18:00,77.7,69.2,30.24,ENE,68,6.9,6.9,75,0.00,,SCT025,0.00,VWS V14.00,2013-05-29 01:18:00,
2013-05-28 21:23:00,77.9,69.3,30.24,ENE,68,5.4,5.4,75,0.00,,SCT025,0.00,VWS V14.00,2013-05-29 01:23:00,
2013-05-28 21:28:00,77.9,68.9,30.24,ESE,112,4.3,4.3,74,0.00,,SCT025,0.00,VWS V14.00,2013-05-29 01:28:00,
2013-05-28 21:33:00,77.7,68.8,30.24,ENE,68,7.8,7.8,74,0.00,,SCT025,0.00,VWS V14.00,2013-05-29 01:33:00,
2013-05-28 21:38:00,77.7,68.8,30.24,ENE,68,4.0,4.0,74,0.00,,SCT025,0.00,VWS V14.00,2013-05-29 01:38:00,
2013-05-28 21:43:00,77.7,68.4,30.24,East,90,7.8,7.8,73,0.00,,SCT025,0.00,VWS V14.00,2013-05-29 01:43:00,
2013-05-28 21:48:00,77.7,68.4,30.24,ESE,112,3.8,3.8,73,0.00,,SCT025,0.00,VWS V14.00,2013-05-29 01:48:00,
2013-05-28 21:53:00,77.7,68.8,30.24,ENE,68,5.6,5.6,74,0.00,,SCT025,0.00,VWS V14.00,2013-05-29 01:53:00,
2013-05-28 21:58:00,77.7,68.8,30.24,ESE,112,3.8,3.8,74,0.00,,SCT025,0.00,VWS V14.00,2013-05-29 01:58:00,
2013-05-28 22:03:00,77.7,68.8,30.24,ESE,112,5.8,5.8,74,0.00,,SCT025,0.00,VWS V14.00,2013-05-29 02:03:00,
2013-05-28 22:08:00,77.7,68.8,30.24,East,90,5.4,5.4,74,0.00,,SCT025,0.00,VWS V14.00,2013-05-29 02:08:00,
2013-05-28 22:13:00,77.7,68.4,30.24,ENE,68,8.7,8.7,73,0.00,,SCT025,0.00,VWS V14.00,2013-05-29 02:13:00,
2013-05-28 22:18:00,77.7,68.4,30.24,ESE,112,6.3,6.3,73,0.00,,SCT025,0.00,VWS V14.00,2013-05-29 02:18:00,
2013-05-28 22:23:00,76.8,68.3,30.24,SE,135,8.7,8.7,75,0.00,,SCT025,0.00,VWS V14.00,2013-05-29 02:23:00,
2013-05-28 22:28:00,76.8,68.3,30.24,East,90,3.8,3.8,75,0.00,,SCT025,0.00,VWS V14.00,2013-05-29 02:28:00,
2013-05-28 22:32:00,75.7,67.3,30.24,East,90,4.3,4.3,75,0.00,,SCT025,0.00,VWS V14.00,2013-05-29 02:32:00,
2013-05-28 22:37:00,75.4,66.9,30.24,ESE,112,4.3,4.3,75,0.00,,SCT025,0.00,VWS V14.00,2013-05-29 02:37:00,
2013-05-28 22:42:00,75.4,66.9,30.24,ESE,112,4.0,4.0,75,0.00,,SCT025,0.00,VWS V14.00,2013-05-29 02:42:00,
2013-05-28 22:47:00,75.4,66.9,30.24,East,90,4.3,4.3,75,0.00,,SCT025,0.00,VWS V14.00,2013-05-29 02:47:00,
2013-05-28 22:52:00,75.4,66.9,30.24,ESE,112,7.4,7.4,75,0.00,,SCT025,0.00,VWS V14.00,2013-05-29 02:52:00,
2013-05-28 22:57:00,74.8,67.5,30.24,ESE,112,5.8,5.8,78,0.00,,SCT025,0.00,VWS V14.00,2013-05-29 02:57:00,
2013-05-28 23:02:00,74.8,68.3,30.24,ENE,68,5.6,5.6,80,0.00,,SCT025,0.00,VWS V14.00,2013-05-29 03:02:00,
2013-05-28 23:07:00,74.8,68.3,30.24,ESE,112,6.5,6.5,80,0.00,,SCT025,0.00,VWS V14.00,2013-05-29 03:07:00,
2013-05-28 23:12:00,75.0,68.4,30.24,SE,135,3.8,3.8,80,0.00,,SCT025,0.00,VWS V14.00,2013-05-29 03:12:00,
2013-05-28 23:17:00,74.8,68.3,30.24,East,90,6.5,6.5,80,0.00,,SCT025,0.00,VWS V14.00,2013-05-29 03:17:00,
2013-05-28 23:22:00,74.8,67.9,30.24,East,90,3.4,3.4,79,0.00,,SCT025,0.00,VWS V14.00,2013-05-29 03:22:00,
2013-05-28 23:27:00,74.8,67.9,30.24,SE,135,4.0,4.0,79,0.00,,SCT025,0.00,VWS V14.00,2013-05-29 03:27:00,
2013-05-28 23:32:00,74.8,67.9,30.24,SE,135,3.6,3.6,79,0.00,,SCT025,0.00,VWS V14.00,2013-05-29 03:32:00,
2013-05-28 23:37:00,74.8,67.9,30.24,ENE,68,3.6,3.6,79,0.00,,SCT025,0.00,VWS V14.00,2013-05-29 03:37:00,
2013-05-28 23:42:00,75.0,68.4,30.24,SSE,158,6.7,6.7,80,0.00,,SCT025,0.00,VWS V14.00,2013-05-29 03:42:00,
2013-05-28 23:47:00,75.0,68.4,30.24,ESE,112,3.6,3.6,80,0.00,,SCT025,0.00,VWS V14.00,2013-05-29 03:47:00,
2013-05-28 23:52:00,75.0,68.4,30.24,SE,135,6.3,6.3,80,0.00,,SCT025,0.00,VWS V14.00,2013-05-29 03:52:00,
2013-05-28 23:57:00,75.0,68.4,30.24,ENE,68,7.2,7.2,80,0.00,,SCT025,0.00,VWS V14.00,2013-05-29 03:57:00,